Time;durP1;ratioP1;P1;durP2;ratioP2;P2;SDS_P1;SDS_P2;PMS_P1;PMS_P2;Temp;Humidity;BMP_temperature;BMP_pressure;BME280_temperature;BME280_humidity;BME280_pressure;Samples;Min_cycle;Max_cycle;Signal;HPM_P1;HPM_P2
2021/07/15 00:02:13;;;;;;;10.83;9.83;;;18.00;99.90;;;;;;5078172;28;20194;-65
2021/07/15 00:04:39;;;;;;;11.53;10.33;;;18.00;99.90;;;;;;5078499;28;20163;-65
2021/07/15 00:07:04;;;;;;;10.03;9.03;;;17.90;99.90;;;;;;5076444;28;20917;-66
2021/07/15 00:09:30;;;;;;;9.33;8.43;;;17.90;99.90;;;;;;5074580;28;20959;-66
2021/07/15 00:11:56;;;;;;;11.53;10.33;;;17.90;99.90;;;;;;5074634;28;20187;-66
2021/07/15 00:14:23;;;;;;;12.47;11.17;;;17.80;99.90;;;;;;5074290;28;20514;-65
2021/07/15 00:16:54;;;;;;;11.70;10.50;;;17.80;99.90;;;;;;5074075;28;20219;-66
2021/07/15 00:19:25;;;;;;;13.27;11.27;;;17.70;99.90;;;;;;5074820;28;20402;-65
2021/07/15 00:21:52;;;;;;;11.23;9.30;;;17.70;99.90;;;;;;5073469;28;20401;-66
2021/07/15 00:24:18;;;;;;;10.07;8.90;;;17.70;99.90;;;;;;5073278;28;20504;-66
2021/07/15 00:26:47;;;;;;;12.43;11.10;;;17.70;99.90;;;;;;5073079;28;20511;-66
2021/07/15 00:29:13;;;;;;;10.73;9.60;;;17.80;99.90;;;;;;5074148;28;20769;-66
2021/07/15 00:31:39;;;;;;;12.13;10.80;;;17.70;99.90;;;;;;5073683;28;20540;-65
2021/07/15 00:34:05;;;;;;;9.60;8.60;;;17.70;99.90;;;;;;5073098;28;20198;-66
2021/07/15 00:36:30;;;;;;;12.70;10.30;;;17.70;99.90;;;;;;5072988;28;20980;-65
2021/07/15 00:38:56;;;;;;;13.53;12.10;;;17.70;99.90;;;;;;5073053;28;20179;-65
2021/07/15 00:41:22;;;;;;;10.23;9.20;;;17.70;99.90;;;;;;5072800;28;20182;-65
2021/07/15 00:43:47;;;;;;;13.33;11.93;;;17.70;99.90;;;;;;5072583;28;20296;-66
2021/07/15 00:46:13;;;;;;;11.13;9.60;;;17.70;99.90;;;;;;5072739;28;20163;-65
2021/07/15 00:48:39;;;;;;;10.90;9.70;;;17.70;99.90;;;;;;5073216;28;20171;-65
2021/07/15 00:51:06;;;;;;;7.37;6.67;;;17.70;99.90;;;;;;5074248;28;20168;-66
2021/07/15 00:53:32;;;;;;;9.83;8.40;;;17.70;99.90;;;;;;5076401;28;20175;-66
2021/07/15 00:55:58;;;;;;;10.40;9.40;;;17.70;99.90;;;;;;5075851;28;20462;-65
2021/07/15 00:58:25;;;;;;;9.40;8.50;;;17.70;99.90;;;;;;5076511;28;20501;-66
2021/07/15 01:00:51;;;;;;;11.90;10.40;;;17.70;99.90;;;;;;5076806;28;20187;-65
2021/07/15 01:03:21;;;;;;;6.60;6.00;;;17.70;99.90;;;;;;5076636;28;20449;-65
2021/07/15 01:05:52;;;;;;;10.10;8.93;;;17.70;99.90;;;;;;5076303;28;20495;-65
2021/07/15 01:08:19;;;;;;;13.60;10.90;;;17.70;99.90;;;;;;5075203;28;20425;-66
2021/07/15 01:11:15;;;;;;;18.30;11.07;;;17.70;99.90;;;;;;5076252;28;20535;-66
2021/07/15 01:13:50;;;;;;;22.00;11.70;;;17.70;99.90;;;;;;5076261;28;20402;-66
2021/07/15 01:16:27;;;;;;;8.73;7.83;;;17.60;99.90;;;;;;5075717;28;20413;-65
2021/07/15 01:19:01;;;;;;;11.77;7.57;;;17.70;99.90;;;;;;5077605;28;20449;-66
2021/07/15 01:21:45;;;;;;;12.67;10.60;;;17.70;99.90;;;;;;5080201;28;20510;-66
2021/07/15 01:24:33;;;;;;;12.57;10.90;;;17.70;99.90;;;;;;5076224;28;20457;-66
2021/07/15 01:27:32;;;;;;;16.73;10.80;;;17.70;99.90;;;;;;5075255;28;20425;-65
2021/07/15 01:30:15;;;;;;;7.20;6.50;;;17.60;99.90;;;;;;5075323;28;20406;-66
2021/07/15 01:32:56;;;;;;;9.60;8.50;;;17.70;99.90;;;;;;5074956;28;20467;-65
2021/07/15 01:35:27;;;;;;;11.07;7.30;;;17.60;99.90;;;;;;5074829;28;20413;-65
2021/07/15 01:37:55;;;;;;;11.80;7.73;;;17.70;99.90;;;;;;5074209;28;20432;-65
2021/07/15 01:40:26;;;;;;;13.63;10.00;;;17.60;99.90;;;;;;5073630;28;20455;-65
2021/07/15 01:42:58;;;;;;;15.30;7.97;;;17.60;99.90;;;;;;5074667;28;20642;-66
2021/07/15 01:45:25;;;;;;;15.33;9.87;;;17.60;99.90;;;;;;5074661;28;20512;-65
2021/07/15 01:47:52;;;;;;;6.43;5.10;;;17.60;99.90;;;;;;5074161;28;20475;-65
2021/07/15 01:50:18;;;;;;;9.60;7.90;;;17.70;99.90;;;;;;5074485;28;20417;-66
2021/07/15 01:52:44;;;;;;;5.83;5.23;;;17.70;99.90;;;;;;5074438;28;20488;-65
2021/07/15 01:55:12;;;;;;;8.77;7.03;;;17.80;99.90;;;;;;5074549;28;20409;-65
2021/07/15 01:57:41;;;;;;;18.27;11.00;;;17.80;99.90;;;;;;5074043;28;20421;-65
2021/07/15 02:00:08;;;;;;;12.00;9.20;;;17.80;99.90;;;;;;5074546;28;20429;-66
2021/07/15 02:02:35;;;;;;;8.10;6.07;;;17.80;99.90;;;;;;5073477;28;20445;-65
2021/07/15 02:05:03;;;;;;;8.30;5.80;;;17.80;99.90;;;;;;5074295;28;20466;-66
2021/07/15 02:07:30;;;;;;;6.70;5.90;;;17.90;99.90;;;;;;5073998;28;20804;-67
2021/07/15 02:09:56;;;;;;;16.20;8.10;;;17.90;99.90;;;;;;5074271;28;20496;-66
2021/07/15 02:12:22;;;;;;;19.00;9.83;;;17.90;99.90;;;;;;5074164;28;20509;-65
2021/07/15 02:14:52;;;;;;;16.70;9.87;;;17.90;99.90;;;;;;5073906;28;20406;-65
2021/07/15 02:17:18;;;;;;;4.27;3.87;;;17.90;99.90;;;;;;5073662;28;20940;-66
2021/07/15 02:19:46;;;;;;;4.70;4.13;;;17.90;99.90;;;;;;5073944;28;20402;-65
2021/07/15 02:22:12;;;;;;;9.53;6.93;;;18.00;99.90;;;;;;5074045;28;20449;-66
2021/07/15 02:24:39;;;;;;;18.67;9.60;;;18.00;99.90;;;;;;5073660;28;20865;-66
2021/07/15 02:27:06;;;;;;;5.87;4.87;;;18.00;99.90;;;;;;5073558;28;20421;-66
2021/07/15 02:29:33;;;;;;;11.23;8.00;;;18.00;99.90;;;;;;5073838;28;20459;-65
2021/07/15 02:32:09;;;;;;;14.27;9.10;;;18.00;99.90;;;;;;5073903;28;20502;-66
2021/07/15 02:35:04;;;;;;;6.20;4.70;;;18.00;99.90;;;;;;5074166;28;20402;-65
2021/07/15 02:37:34;;;;;;;4.97;4.53;;;18.10;99.90;;;;;;5073354;28;20441;-66
2021/07/15 02:40:01;;;;;;;10.03;8.07;;;18.10;99.90;;;;;;5073652;28;20893;-66
2021/07/15 02:42:27;;;;;;;6.90;4.83;;;18.00;99.90;;;;;;5073576;28;20495;-66
2021/07/15 02:44:53;;;;;;;9.70;5.93;;;18.10;99.90;;;;;;5073635;28;20417;-66
2021/07/15 02:47:19;;;;;;;5.77;4.67;;;18.10;99.90;;;;;;5073111;28;20232;-65
2021/07/15 02:49:45;;;;;;;10.50;8.60;;;18.20;99.90;;;;;;5073436;28;20965;-65
2021/07/15 02:52:11;;;;;;;7.27;5.40;;;18.00;99.90;;;;;;5073285;28;20631;-66
2021/07/15 02:54:39;;;;;;;7.20;5.47;;;18.00;99.90;;;;;;5073359;28;20175;-66
2021/07/15 02:57:23;;;;;;;6.30;5.70;;;18.00;99.90;;;;;;5072832;28;20425;-66
2021/07/15 03:00:10;;;;;;;4.37;3.97;;;18.10;99.90;;;;;;5073158;28;20429;-65
2021/07/15 03:03:03;;;;;;;13.43;9.93;;;18.10;99.90;;;;;;5072854;28;20457;-66
2021/07/15 03:05:41;;;;;;;13.37;7.50;;;18.10;99.90;;;;;;5073324;28;20458;-66
2021/07/15 03:08:11;;;;;;;7.63;5.30;;;18.10;99.90;;;;;;5072578;28;20477;-66
2021/07/15 03:10:37;;;;;;;14.30;10.00;;;18.00;99.90;;;;;;5072993;28;20417;-65
2021/07/15 03:13:09;;;;;;;6.20;5.10;;;18.00;99.90;;;;;;5072818;28;20424;-65
2021/07/15 03:15:38;;;;;;;8.73;7.03;;;18.10;99.90;;;;;;5072945;28;20766;-66
2021/07/15 03:18:06;;;;;;;9.20;6.30;;;18.10;99.90;;;;;;5072430;28;20508;-65
2021/07/15 03:20:39;;;;;;;16.80;11.33;;;18.20;99.90;;;;;;5072884;28;20406;-66
2021/07/15 03:23:10;;;;;;;7.80;6.43;;;18.20;99.90;;;;;;5072591;28;20470;-65
2021/07/15 03:25:36;;;;;;;6.90;5.03;;;18.20;99.90;;;;;;5072793;28;20406;-66
2021/07/15 03:28:06;;;;;;;6.53;5.27;;;18.20;99.90;;;;;;5072509;28;20424;-66
2021/07/15 03:30:32;;;;;;;10.20;6.70;;;18.20;99.90;;;;;;5072709;28;20409;-66
2021/07/15 03:33:00;;;;;;;7.77;5.73;;;18.10;99.90;;;;;;5072637;28;20845;-66
2021/07/15 03:35:27;;;;;;;6.53;5.47;;;18.20;99.90;;;;;;5072480;28;20194;-66
2021/07/15 03:37:53;;;;;;;5.03;4.00;;;18.20;99.90;;;;;;5072408;28;20429;-66
2021/07/15 03:40:23;;;;;;;4.67;4.00;;;18.30;99.90;;;;;;5072500;28;20413;-65
2021/07/15 03:42:50;;;;;;;8.07;5.77;;;18.30;99.90;;;;;;5072438;28;20452;-66
2021/07/15 03:45:18;;;;;;;11.10;6.67;;;18.30;99.90;;;;;;5072393;28;20423;-66
2021/07/15 03:47:49;;;;;;;5.53;5.00;;;18.20;99.90;;;;;;5072034;28;20511;-65
2021/07/15 03:50:18;;;;;;;5.90;5.30;;;18.30;99.90;;;;;;5072278;28;20782;-67
2021/07/15 03:52:47;;;;;;;3.90;3.60;;;18.30;99.90;;;;;;5072456;28;20751;-66
2021/07/15 03:55:13;;;;;;;7.33;5.13;;;18.40;99.90;;;;;;5072406;28;20487;-66
2021/07/15 03:57:40;;;;;;;4.83;4.03;;;18.40;99.90;;;;;;5071793;28;20441;-66
2021/07/15 04:00:06;;;;;;;9.13;6.07;;;18.40;99.90;;;;;;5072308;28;20551;-65
2021/07/15 04:02:36;;;;;;;4.50;4.10;;;18.40;99.90;;;;;;5072010;28;20453;-66
2021/07/15 04:05:02;;;;;;;4.93;4.33;;;18.40;99.90;;;;;;5072151;28;20417;-66
2021/07/15 04:07:30;;;;;;;5.00;4.27;;;18.40;99.90;;;;;;5071824;28;20967;-65
2021/07/15 04:09:57;;;;;;;6.13;5.50;;;18.40;99.90;;;;;;5072095;28;20408;-66
2021/07/15 04:12:25;;;;;;;3.63;3.33;;;18.40;99.90;;;;;;5072083;28;20488;-66
2021/07/15 04:14:58;;;;;;;3.00;2.80;;;18.40;99.90;;;;;;5072034;28;20410;-66
2021/07/15 04:17:25;;;;;;;3.40;3.10;;;18.40;99.90;;;;;;5071562;28;20917;-66
2021/07/15 04:19:51;;;;;;;4.67;3.27;;;18.40;99.90;;;;;;5071987;28;20423;-66
2021/07/15 04:22:17;;;;;;;2.80;2.60;;;18.40;99.90;;;;;;5071863;28;20453;-66
2021/07/15 04:24:43;;;;;;;2.53;2.33;;;18.50;99.90;;;;;;5071812;28;20163;-65
2021/07/15 04:27:10;;;;;;;2.57;2.37;;;18.50;99.90;;;;;;5071063;28;20483;-65
2021/07/15 04:29:38;;;;;;;3.00;2.80;;;18.50;99.90;;;;;;5071676;28;20926;-65
2021/07/15 04:32:14;;;;;;;3.80;2.80;;;18.50;99.90;;;;;;5071875;28;20421;-66
2021/07/15 04:34:41;;;;;;;3.03;2.80;;;18.30;99.90;;;;;;5071798;28;20409;-66
2021/07/15 04:37:07;;;;;;;2.83;2.40;;;18.40;99.90;;;;;;5071583;28;20475;-66
2021/07/15 04:39:34;;;;;;;2.87;2.67;;;18.40;99.90;;;;;;5071913;28;20913;-67
2021/07/15 04:42:02;;;;;;;2.73;2.53;;;18.40;99.90;;;;;;5071856;28;20402;-66
2021/07/15 04:44:33;;;;;;;2.57;2.37;;;18.40;99.90;;;;;;5071698;28;20401;-66
2021/07/15 04:47:00;;;;;;;2.30;2.20;;;18.50;99.90;;;;;;5071233;28;20513;-66
2021/07/15 04:49:26;;;;;;;2.23;2.03;;;18.50;99.90;;;;;;5071849;28;20413;-65
2021/07/15 04:51:55;;;;;;;2.87;2.67;;;18.50;99.90;;;;;;5071569;28;20410;-66
2021/07/15 04:54:22;;;;;;;2.60;2.40;;;18.50;99.90;;;;;;5071642;28;20497;-66
2021/07/15 04:56:48;;;;;;;3.20;1.87;;;18.50;99.90;;;;;;5071185;28;20437;-65
2021/07/15 04:59:14;;;;;;;2.20;2.10;;;18.50;99.90;;;;;;5071911;28;20406;-65
2021/07/15 05:01:40;;;;;;;2.23;2.13;;;18.50;99.90;;;;;;5071532;28;20413;-65
2021/07/15 05:04:05;;;;;;;2.57;2.37;;;18.50;99.90;;;;;;5071399;28;20460;-65
2021/07/15 05:06:31;;;;;;;2.17;2.07;;;18.50;99.90;;;;;;5071251;28;20198;-66
2021/07/15 05:08:57;;;;;;;5.33;2.47;;;18.50;99.90;;;;;;5071479;28;20604;-66
2021/07/15 05:11:22;;;;;;;3.83;3.53;;;18.50;99.90;;;;;;5071468;28;20175;-66
2021/07/15 05:13:49;;;;;;;2.77;2.57;;;18.40;99.90;;;;;;5071466;28;20642;-66
2021/07/15 05:16:14;;;;;;;2.70;2.50;;;18.30;99.90;;;;;;5070998;28;20267;-65
2021/07/15 05:18:40;;;;;;;3.23;3.00;;;18.30;99.90;;;;;;5071601;28;20438;-66
2021/07/15 05:21:06;;;;;;;3.27;3.07;;;18.40;99.90;;;;;;5071628;28;20659;-66
2021/07/15 05:23:31;;;;;;;3.03;2.73;;;18.40;99.90;;;;;;5071144;28;20199;-65
2021/07/15 05:25:57;;;;;;;2.50;2.30;;;18.30;99.90;;;;;;5070965;28;20179;-66
2021/07/15 05:28:24;;;;;;;2.20;2.10;;;18.30;99.90;;;;;;5071367;28;20262;-65
2021/07/15 05:30:49;;;;;;;2.77;2.57;;;18.30;99.90;;;;;;5071386;28;20600;-65
2021/07/15 05:33:15;;;;;;;2.10;2.00;;;18.40;99.90;;;;;;5071334;28;20444;-65
2021/07/15 05:35:42;;;;;;;2.07;1.97;;;18.40;99.90;;;;;;5071260;28;20552;-65
2021/07/15 05:38:08;;;;;;;2.40;2.30;;;18.40;99.90;;;;;;5072171;28;20713;-67
2021/07/15 05:40:34;;;;;;;2.07;1.97;;;18.50;99.90;;;;;;5074671;28;20492;-65
2021/07/15 05:43:00;;;;;;;1.77;1.67;;;18.40;99.90;;;;;;5074648;28;20685;-65
2021/07/15 05:45:26;;;;;;;2.47;2.33;;;18.50;99.90;;;;;;5074596;28;20401;-65
2021/07/15 05:47:51;;;;;;;2.00;1.90;;;18.50;99.90;;;;;;5074345;28;20195;-65
2021/07/15 05:50:17;;;;;;;3.17;2.97;;;18.60;99.90;;;;;;5074840;28;20172;-66
2021/07/15 05:52:43;;;;;;;2.53;1.67;;;18.70;99.90;;;;;;5074560;28;20266;-65
2021/07/15 05:55:09;;;;;;;1.70;1.60;;;18.70;99.90;;;;;;5074669;28;20515;-65
2021/07/15 05:57:35;;;;;;;1.90;1.80;;;18.90;99.90;;;;;;5074389;28;20199;-66
2021/07/15 06:00:02;;;;;;;1.53;1.43;;;19.00;99.90;;;;;;5074429;28;20822;-66
2021/07/15 06:02:27;;;;;;;1.97;1.67;;;19.00;99.90;;;;;;5074403;28;20202;-66
2021/07/15 06:04:53;;;;;;;1.60;1.40;;;19.10;99.90;;;;;;5074450;28;20406;-66
2021/07/15 06:07:18;;;;;;;2.10;1.50;;;19.10;99.90;;;;;;5073392;28;20218;-66
2021/07/15 06:09:44;;;;;;;1.70;1.60;;;19.10;99.90;;;;;;5074301;28;20174;-66
2021/07/15 06:12:10;;;;;;;1.53;1.40;;;19.10;99.90;;;;;;5075139;28;20278;-65
2021/07/15 06:14:36;;;;;;;4.53;2.00;;;19.10;99.90;;;;;;5075512;28;20171;-66
2021/07/15 06:17:02;;;;;;;3.23;1.50;;;19.10;99.90;;;;;;5075251;28;20218;-66
2021/07/15 06:19:27;;;;;;;1.67;1.57;;;19.10;99.90;;;;;;5074730;28;20412;-65
2021/07/15 06:21:53;;;;;;;1.43;1.33;;;19.20;99.90;;;;;;5075230;28;20409;-65
2021/07/15 06:24:18;;;;;;;3.70;1.33;;;19.10;99.90;;;;;;5074009;28;20237;-65
2021/07/15 06:26:44;;;;;;;2.00;1.30;;;19.00;99.90;;;;;;5074804;28;20187;-65
2021/07/15 06:29:11;;;;;;;1.70;1.60;;;19.10;99.90;;;;;;5075567;28;20170;-65
2021/07/15 06:31:38;;;;;;;1.57;1.47;;;19.00;99.90;;;;;;5075410;28;20624;-65
2021/07/15 06:34:03;;;;;;;1.80;1.30;;;19.00;99.90;;;;;;5075311;28;20499;-65
2021/07/15 06:36:32;;;;;;;1.90;1.80;;;19.10;99.90;;;;;;5073741;28;20886;-65
2021/07/15 06:38:58;;;;;;;1.83;1.73;;;19.10;99.90;;;;;;5075872;28;20350;-66
2021/07/15 06:41:24;;;;;;;3.37;1.50;;;19.30;99.90;;;;;;5075172;28;20432;-65
2021/07/15 06:43:49;;;;;;;1.17;1.07;;;19.30;99.90;;;;;;5073553;28;20961;-65
2021/07/15 06:46:16;;;;;;;1.30;1.30;;;19.40;99.90;;;;;;5074262;28;20172;-66
2021/07/15 06:48:41;;;;;;;1.50;1.50;;;19.30;99.90;;;;;;5074172;28;20175;-64
2021/07/15 06:51:07;;;;;;;1.50;1.40;;;19.30;99.90;;;;;;5073743;28;20496;-64
2021/07/15 06:53:33;;;;;;;1.13;1.10;;;19.30;99.90;;;;;;5073159;28;20211;-64
2021/07/15 06:55:59;;;;;;;1.27;1.20;;;19.40;99.90;;;;;;5073198;28;20468;-64
2021/07/15 06:58:25;;;;;;;1.20;1.10;;;19.40;99.90;;;;;;5072981;28;20273;-64
2021/07/15 07:00:50;;;;;;;1.20;1.10;;;19.40;99.90;;;;;;5073516;28;20528;-65
2021/07/15 07:03:16;;;;;;;1.20;1.10;;;19.30;99.90;;;;;;5073414;28;20837;-63
2021/07/15 07:05:42;;;;;;;1.23;1.13;;;19.20;99.90;;;;;;5073182;28;20175;-65
2021/07/15 07:08:08;;;;;;;1.00;1.00;;;19.20;99.90;;;;;;5073035;28;20273;-65
2021/07/15 07:10:34;;;;;;;2.70;1.80;;;19.20;99.90;;;;;;5073133;28;20890;-64
2021/07/15 07:13:00;;;;;;;1.00;1.00;;;19.20;99.90;;;;;;5073275;28;20467;-64
2021/07/15 07:15:26;;;;;;;1.20;1.10;;;19.20;99.90;;;;;;5072880;28;20413;-64
2021/07/15 07:17:52;;;;;;;1.10;1.10;;;19.20;99.90;;;;;;5072773;28;20482;-64
2021/07/15 07:20:18;;;;;;;1.40;1.30;;;19.20;99.90;;;;;;5074880;28;20203;-65
2021/07/15 07:22:45;;;;;;;1.10;1.10;;;19.10;99.90;;;;;;5074680;28;20726;-65
2021/07/15 07:25:12;;;;;;;2.00;1.90;;;19.10;99.90;;;;;;5075840;28;20172;-65
2021/07/15 07:27:38;;;;;;;1.67;1.57;;;19.00;99.90;;;;;;5075170;28;20425;-65
2021/07/15 07:30:05;;;;;;;1.60;1.50;;;19.00;99.90;;;;;;5075259;28;20492;-65
2021/07/15 07:32:31;;;;;;;1.40;1.30;;;19.10;99.90;;;;;;5074653;28;20183;-64
2021/07/15 07:34:56;;;;;;;1.00;1.00;;;19.00;99.90;;;;;;5074796;28;20913;-65
2021/07/15 07:37:22;;;;;;;1.00;0.90;;;19.10;99.90;;;;;;5074310;28;20559;-64
2021/07/15 07:39:48;;;;;;;1.30;1.20;;;19.10;99.90;;;;;;5075413;28;20183;-64
2021/07/15 07:42:13;;;;;;;1.73;1.13;;;19.20;99.90;;;;;;5075385;28;20175;-64
2021/07/15 07:44:39;;;;;;;0.90;0.90;;;19.20;99.90;;;;;;5075199;28;20168;-65
2021/07/15 07:47:05;;;;;;;2.30;1.60;;;19.30;99.90;;;;;;5074200;28;20277;-64
2021/07/15 07:49:30;;;;;;;1.30;1.30;;;19.30;99.90;;;;;;5075230;28;20182;-64
2021/07/15 07:51:56;;;;;;;1.27;1.17;;;19.30;99.90;;;;;;5074229;28;20164;-64
2021/07/15 07:54:22;;;;;;;0.97;0.97;;;19.30;99.90;;;;;;5073446;28;20167;-64
2021/07/15 07:56:48;;;;;;;1.43;1.37;;;19.30;99.90;;;;;;5073459;28;20198;-65
2021/07/15 07:59:13;;;;;;;4.87;1.17;;;19.40;99.90;;;;;;5073140;28;20168;-64
2021/07/15 08:01:39;;;;;;;4.20;1.20;;;19.40;99.90;;;;;;5071460;28;20563;-64
2021/07/15 08:04:06;;;;;;;1.00;1.00;;;19.40;99.90;;;;;;5071998;28;20253;-63
2021/07/15 08:06:36;;;;;;;1.53;0.90;;;19.50;99.90;;;;;;5071809;28;20932;-63
2021/07/15 08:09:09;;;;;;;1.00;1.00;;;19.50;99.90;;;;;;5072595;28;20405;-65
2021/07/15 08:11:36;;;;;;;3.33;0.60;;;19.50;99.90;;;;;;5072651;28;20476;-63
2021/07/15 08:14:02;;;;;;;0.53;0.53;;;19.40;99.90;;;;;;5071974;28;20798;-64
2021/07/15 08:16:28;;;;;;;0.63;0.63;;;19.30;99.90;;;;;;5071541;28;20428;-64
2021/07/15 08:18:54;;;;;;;1.43;0.90;;;19.40;99.90;;;;;;5071994;28;20242;-64
2021/07/15 08:21:20;;;;;;;1.23;1.20;;;19.40;99.90;;;;;;5072036;28;20163;-65
2021/07/15 08:23:47;;;;;;;0.93;0.93;;;19.50;99.90;;;;;;5071916;28;20662;-65
2021/07/15 08:26:12;;;;;;;0.97;0.80;;;19.40;99.90;;;;;;5071609;28;20492;-63
2021/07/15 08:28:38;;;;;;;0.90;0.80;;;19.40;99.90;;;;;;5072261;28;20928;-64
2021/07/15 08:31:03;;;;;;;0.90;0.90;;;19.50;99.90;;;;;;5072498;28;20658;-64
2021/07/15 08:33:29;;;;;;;1.40;1.23;;;19.40;99.90;;;;;;5072155;28;20220;-65
2021/07/15 08:35:56;;;;;;;0.97;0.97;;;19.40;99.90;;;;;;5072706;28;20171;-63
2021/07/15 08:38:22;;;;;;;1.70;1.60;;;19.40;99.90;;;;;;5071445;28;20725;-62
2021/07/15 08:40:48;;;;;;;1.53;1.33;;;19.40;99.90;;;;;;5072043;28;20405;-64
2021/07/15 08:43:14;;;;;;;1.50;1.40;;;19.40;99.90;;;;;;5071488;28;21006;-63
2021/07/15 08:45:41;;;;;;;2.00;1.90;;;19.40;99.90;;;;;;5071660;28;20481;-63
2021/07/15 08:48:07;;;;;;;2.30;2.10;;;19.40;99.90;;;;;;5071144;28;20786;-63
2021/07/15 08:50:33;;;;;;;1.80;1.70;;;19.40;99.90;;;;;;5071722;28;20409;-63
2021/07/15 08:52:59;;;;;;;1.30;1.30;;;19.40;99.90;;;;;;5071536;28;20757;-63
2021/07/15 08:58:11;;;;;;;2.07;1.50;;;19.50;99.90;;;;;;5071288;28;20202;-63
2021/07/15 09:00:38;;;;;;;2.00;1.90;;;19.60;99.90;;;;;;5071229;28;20429;-64
2021/07/15 09:03:04;;;;;;;1.37;1.37;;;19.70;99.90;;;;;;5071410;28;20453;-64
2021/07/15 09:05:29;;;;;;;1.10;1.10;;;19.90;99.90;;;;;;5071550;28;20891;-65
2021/07/15 09:07:55;;;;;;;1.00;1.00;;;20.00;99.90;;;;;;5071180;28;20787;-64
2021/07/15 09:10:21;;;;;;;1.20;1.20;;;20.10;99.90;;;;;;5071251;28;20257;-63
2021/07/15 09:12:46;;;;;;;1.70;1.60;;;20.20;99.90;;;;;;5073603;28;20171;-65
2021/07/15 09:15:12;;;;;;;1.83;1.70;;;20.20;99.90;;;;;;5075108;28;20705;-64
2021/07/15 09:17:38;;;;;;;1.80;1.70;;;20.30;99.90;;;;;;5074931;28;20238;-64
2021/07/15 09:20:07;;;;;;;2.10;2.00;;;20.40;99.90;;;;;;5075147;28;20635;-64
2021/07/15 09:22:33;;;;;;;1.60;1.50;;;20.50;99.90;;;;;;5074827;28;20190;-64
2021/07/15 09:25:03;;;;;;;2.83;2.50;;;20.40;99.90;;;;;;5075264;28;20873;-63
2021/07/15 09:27:29;;;;;;;2.40;2.20;;;20.40;99.90;;;;;;5074394;28;20180;-64
2021/07/15 09:30:11;;;;;;;2.70;2.50;;;20.30;99.90;;;;;;5074808;28;20398;-64
2021/07/15 09:32:50;;;;;;;2.13;2.00;;;20.40;99.90;;;;;;5074877;28;20225;-64
2021/07/15 09:35:25;;;;;;;2.90;2.70;;;20.40;99.90;;;;;;5074891;28;20405;-63
2021/07/15 09:37:50;;;;;;;2.70;2.53;;;20.30;99.90;;;;;;5074324;28;21006;-63
2021/07/15 09:40:52;;;;;;;2.53;2.33;;;20.30;99.90;;;;;;5074671;28;20397;-63
2021/07/15 09:43:29;;;;;;;3.10;2.90;;;20.20;99.90;;;;;;5074487;28;20281;-63
2021/07/15 09:46:00;;;;;;;2.80;2.60;;;20.10;99.90;;;;;;5074704;28;20459;-64
2021/07/15 09:48:26;;;;;;;2.30;2.10;;;20.10;99.90;;;;;;5074342;28;20425;-63
2021/07/15 09:50:55;;;;;;;2.90;2.70;;;20.10;99.90;;;;;;5074572;28;20420;-63
2021/07/15 09:53:23;;;;;;;2.70;2.50;;;20.10;99.90;;;;;;5074617;28;20488;-62
2021/07/15 09:56:00;;;;;;;4.10;3.70;;;20.10;99.90;;;;;;5074393;28;20401;-64
2021/07/15 09:58:34;;;;;;;2.90;2.70;;;20.10;99.90;;;;;;5074476;28;20417;-63
2021/07/15 10:01:08;;;;;;;2.87;2.67;;;20.10;99.90;;;;;;5074101;28;20426;-63
2021/07/15 10:03:45;;;;;;;2.80;2.40;;;20.10;99.90;;;;;;5074217;28;20972;-64
2021/07/15 10:06:12;;;;;;;2.47;2.27;;;20.20;99.90;;;;;;5073949;28;20442;-65
2021/07/15 10:08:42;;;;;;;3.20;2.90;;;20.20;99.90;;;;;;5074147;28;20466;-64
2021/07/15 10:11:13;;;;;;;4.20;1.70;;;20.20;99.90;;;;;;5074175;28;20943;-64
2021/07/15 10:13:39;;;;;;;2.00;1.90;;;20.20;99.90;;;;;;5073925;28;20445;-64
2021/07/15 10:16:06;;;;;;;2.20;2.00;;;20.20;99.90;;;;;;5073740;28;20401;-64
2021/07/15 10:18:39;;;;;;;1.90;1.80;;;20.20;99.90;;;;;;5074085;28;20982;-65
2021/07/15 10:21:07;;;;;;;2.87;2.67;;;20.20;99.90;;;;;;5074354;28;20402;-65
2021/07/15 10:23:35;;;;;;;1.77;1.50;;;20.20;99.90;;;;;;5072896;28;20885;-65
2021/07/15 10:26:02;;;;;;;1.70;1.60;;;20.20;99.90;;;;;;5073540;28;20770;-64
2021/07/15 10:28:28;;;;;;;2.00;1.90;;;20.20;99.90;;;;;;5073777;28;20413;-64
2021/07/15 10:31:03;;;;;;;1.90;1.80;;;20.20;99.90;;;;;;5074018;28;20402;-64
2021/07/15 10:33:29;;;;;;;1.80;1.70;;;20.20;99.90;;;;;;5073736;28;20402;-64
2021/07/15 10:35:57;;;;;;;2.03;1.93;;;20.10;99.90;;;;;;5073606;28;20882;-64
2021/07/15 10:38:25;;;;;;;3.90;3.57;;;20.10;99.90;;;;;;5073346;28;20433;-64
2021/07/15 10:40:52;;;;;;;4.43;4.00;;;20.00;99.90;;;;;;5073622;28;20409;-64
2021/07/15 10:43:18;;;;;;;5.80;5.30;;;20.00;99.90;;;;;;5073301;28;20452;-64
2021/07/15 10:45:45;;;;;;;8.20;7.23;;;19.90;99.90;;;;;;5073435;28;20547;-64
2021/07/15 10:48:13;;;;;;;6.10;5.60;;;19.90;99.90;;;;;;5073139;28;20682;-64
2021/07/15 10:50:39;;;;;;;5.13;4.70;;;19.90;99.90;;;;;;5073298;28;20444;-64
2021/07/15 10:53:06;;;;;;;8.40;7.50;;;19.80;99.90;;;;;;5073176;28;20857;-64
2021/07/15 10:55:33;;;;;;;7.30;6.57;;;19.70;99.90;;;;;;5073372;28;20410;-64
2021/07/15 10:57:58;;;;;;;6.00;5.50;;;19.70;99.90;;;;;;5072863;28;20515;-64
2021/07/15 11:00:28;;;;;;;5.17;4.77;;;19.70;99.90;;;;;;5072939;28;20489;-64
2021/07/15 11:03:21;;;;;;;7.30;5.30;;;19.70;99.90;;;;;;5072900;28;20191;-64
2021/07/15 11:05:56;;;;;;;4.43;4.10;;;19.70;99.90;;;;;;5072941;28;20382;-64
2021/07/15 11:08:43;;;;;;;4.13;3.73;;;19.70;99.90;;;;;;5073120;28;20428;-64
2021/07/15 11:11:08;;;;;;;4.33;3.90;;;19.70;99.90;;;;;;5073024;28;20398;-64
2021/07/15 11:13:34;;;;;;;3.03;2.63;;;19.70;99.90;;;;;;5072918;28;21027;-64
2021/07/15 11:16:03;;;;;;;2.57;2.37;;;19.70;99.90;;;;;;5072524;28;20182;-64
2021/07/15 11:18:41;;;;;;;3.23;2.93;;;19.80;99.90;;;;;;5073007;28;20190;-64
2021/07/15 11:21:32;;;;;;;3.00;2.80;;;19.80;99.90;;;;;;5072774;28;20417;-64
2021/07/15 11:24:04;;;;;;;3.47;3.27;;;19.80;99.90;;;;;;5072055;28;20594;-64
2021/07/15 11:26:34;;;;;;;2.70;2.50;;;19.70;99.90;;;;;;5072243;28;20429;-64
2021/07/15 11:29:01;;;;;;;2.90;2.70;;;19.70;99.90;;;;;;5072653;28;20409;-64
2021/07/15 11:31:44;;;;;;;2.43;2.33;;;19.70;99.90;;;;;;5072639;28;20543;-64
2021/07/15 11:34:30;;;;;;;1.97;1.87;;;19.80;99.90;;;;;;5072432;28;20437;-64
2021/07/15 11:37:35;;;;;;;3.87;3.63;;;19.80;99.90;;;;;;5071368;28;20509;-64
2021/07/15 11:40:04;;;;;;;3.37;3.17;;;19.80;99.90;;;;;;5072385;28;20417;-64
2021/07/15 11:42:35;;;;;;;5.33;4.93;;;19.80;99.90;;;;;;5072386;28;20507;-64
2021/07/15 11:45:04;;;;;;;4.50;4.10;;;19.80;99.90;;;;;;5072324;28;20760;-64
2021/07/15 11:47:53;;;;;;;3.87;3.57;;;19.70;99.90;;;;;;5071962;28;20433;-64
2021/07/15 11:50:31;;;;;;;5.63;5.23;;;19.70;99.90;;;;;;5072225;28;20402;-64
2021/07/15 11:53:21;;;;;;;5.33;4.87;;;19.70;99.90;;;;;;5072192;28;20397;-64
2021/07/15 11:55:49;;;;;;;6.20;5.70;;;19.60;99.90;;;;;;5071622;28;20873;-64
2021/07/15 11:58:39;;;;;;;7.67;6.93;;;19.60;99.90;;;;;;5071857;28;20429;-64
2021/07/15 12:01:21;;;;;;;5.30;4.80;;;19.50;99.90;;;;;;5072021;28;20584;-64
2021/07/15 12:03:59;;;;;;;5.40;4.90;;;19.50;99.90;;;;;;5072010;28;20850;-64
2021/07/15 12:06:26;;;;;;;4.40;4.00;;;19.50;99.90;;;;;;5071515;28;20475;-64
2021/07/15 12:08:58;;;;;;;4.63;4.23;;;19.60;99.90;;;;;;5072156;28;20461;-64
2021/07/15 12:11:23;;;;;;;6.40;5.90;;;19.60;99.90;;;;;;5070494;28;20980;-64
2021/07/15 12:13:51;;;;;;;6.97;5.10;;;19.60;99.90;;;;;;5071549;28;20494;-64
2021/07/15 12:16:21;;;;;;;6.50;5.90;;;19.50;99.90;;;;;;5070952;28;20640;-64
2021/07/15 12:18:47;;;;;;;8.03;7.23;;;19.50;99.90;;;;;;5071401;28;20500;-64
2021/07/15 12:21:16;;;;;;;7.77;6.97;;;19.50;99.90;;;;;;5071641;28;20901;-64
2021/07/15 12:23:42;;;;;;;8.57;7.77;;;19.60;99.90;;;;;;5071137;28;20552;-64
2021/07/15 12:26:12;;;;;;;8.73;7.83;;;19.50;99.90;;;;;;5071169;28;20496;-64
2021/07/15 12:28:43;;;;;;;9.67;8.77;;;19.50;99.90;;;;;;5071382;28;20175;-64
2021/07/15 12:31:11;;;;;;;10.17;9.10;;;19.60;99.90;;;;;;5071814;28;21063;-64
2021/07/15 12:33:40;;;;;;;6.23;5.73;;;19.60;99.90;;;;;;5071425;28;20420;-65
2021/07/15 12:36:14;;;;;;;7.07;6.37;;;19.60;99.90;;;;;;5070682;28;20935;-65
2021/07/15 12:38:44;;;;;;;7.13;6.53;;;19.60;99.90;;;;;;5071715;28;20417;-65
2021/07/15 12:41:30;;;;;;;8.60;7.40;;;19.60;99.90;;;;;;5071339;28;20455;-65
2021/07/15 12:44:00;;;;;;;7.67;6.87;;;19.60;99.90;;;;;;5071378;28;20510;-65
2021/07/15 12:46:29;;;;;;;6.20;5.70;;;19.60;99.90;;;;;;5071060;28;20409;-65
2021/07/15 12:48:57;;;;;;;7.43;6.70;;;19.60;99.90;;;;;;5075621;28;20402;-65
2021/07/15 12:51:25;;;;;;;6.90;6.27;;;19.60;99.90;;;;;;5075525;28;20812;-65
2021/07/15 12:53:52;;;;;;;6.20;5.70;;;19.50;99.90;;;;;;5075307;28;20775;-65
2021/07/15 12:56:24;;;;;;;4.87;4.40;;;19.60;99.90;;;;;;5073847;28;20998;-65
2021/07/15 12:59:16;;;;;;;6.17;5.60;;;19.70;99.90;;;;;;5075651;28;20822;-65